Weather at President Carlos Ibañez del Campo International Airport

Public forecast

Using degrees Celsius for public forecast. Weather courtesy of forecast.io.

Current aviation weather report (METAR) for President Carlos Ibañez del Campo International Airport

2024/06/21 17:00 (retrieved 1 minute ago)

SCCI 211700Z 27003KT 0100 R25/0225N FZFG VV002 M05/M06 Q1021 TEMPO 0500 FZFG OVC002

Aviation forecast (TAF) for President Carlos Ibañez del Campo International Airport

2024/06/21 12:00 (retrieved 5 hours ago)

TAF SCCI 211051Z 2112/2212 24007KT 9999 SCT035 TNM12/2112Z TX00/2116Z PROB30 TEMPO 2112/2114 28005KT 6000 SCT010 BECMG 2119/2121 FEW010